KEAR

Kearney Regional Airport

Kearney, Nebraska, USA
METAR KEAR 221656Z AUTO 19011KT 10SM CLR 26/18 A2998 RMK AO2 SLP135 T02560178
Observed Flight Rules
May-22 @ 16:56 UTC (58 minutes ago) Visual Flight Rules
Wind Visibility Clouds
190° at 11 knots 10 miles
  • Clear skies
Temperatures Readings
Current 26°C / 79°F
Dewpoint 18°C / 64°F
Humidity 61%
Altimeter 29.98" Hg
Pressure 1013.5 hPa
Elevation 649
METAR KEAR 221656Z AUTO 19011KT 10SM CLR 26/18 A2998 RMK AO2 SLP135 T02560178
Observed Flight Rules
May-22 @ 16:56 UTC
(58 minutes ago)
VFR
Wind Visibility
190° at 11 knots 10 miles
Clouds
  • Clear skies
Temperature Dewpoint
26°C / 79°F 18°C / 64°F
Humidity Altimeter Pressure
61% 29.98" Hg 1013.5 hPa